sensor_id;sensor_type;location;lat;lon;timestamp;P1;P2;P0
56175;PMS5003;63065;51.082;17.016;2022-08-26T10:31:21;19;18;
56175;PMS5003;63065;51.082;17.016;2022-08-26T10:33:42;19;17;
56175;PMS5003;63065;51.082;17.016;2022-08-26T10:36:05;21;19;
56175;PMS5003;63065;51.082;17.016;2022-08-26T10:38:31;20;17;
56175;PMS5003;63065;51.082;17.016;2022-08-26T10:40:58;23;22;
56175;PMS5003;63065;51.082;17.016;2022-08-26T10:43:22;23;16;
56175;PMS5003;63065;51.082;17.016;2022-08-26T10:45:48;24;19;
56175;PMS5003;63065;51.082;17.016;2022-08-26T10:48:12;19;19;
56175;PMS5003;63065;51.082;17.016;2022-08-26T10:50:39;18;18;
56175;PMS5003;63065;51.082;17.016;2022-08-26T10:53:04;19;17;
56175;PMS5003;63065;51.082;17.016;2022-08-26T10:55:31;23;19;
56175;PMS5003;63065;51.082;17.016;2022-08-26T10:57:55;21;19;
56175;PMS5003;63065;51.082;17.016;2022-08-26T11:00:21;19;18;
56175;PMS5003;63065;51.082;17.016;2022-08-26T11:02:45;23;20;
56175;PMS5003;63065;51.082;17.016;2022-08-26T11:05:13;20;20;
56175;PMS5003;63065;51.082;17.016;2022-08-26T11:07:37;25;25;
56175;PMS5003;63065;51.082;17.016;2022-08-26T11:10:02;25;25;
56175;PMS5003;63065;51.082;17.016;2022-08-26T11:14:52;23;21;
56175;PMS5003;63065;51.082;17.016;2022-08-26T11:17:18;24;19;
56175;PMS5003;63065;51.082;17.016;2022-08-26T11:22:08;23;22;
56175;PMS5003;63065;51.082;17.016;2022-08-26T11:24:38;23;20;
56175;PMS5003;63065;51.082;17.016;2022-08-26T11:26:59;23;21;
56175;PMS5003;63065;51.082;17.016;2022-08-26T11:31:52;22;20;
56175;PMS5003;63065;51.082;17.016;2022-08-26T11:34:15;21;19;
56175;PMS5003;63065;51.082;17.016;2022-08-26T11:36:42;21;21;
56175;PMS5003;63065;51.082;17.016;2022-08-26T11:41:30;17;17;
56175;PMS5003;63065;51.082;17.016;2022-08-26T11:43:58;20;18;
56175;PMS5003;63065;51.082;17.016;2022-08-26T11:46:24;16;16;
56175;PMS5003;63065;51.082;17.016;2022-08-26T11:48:47;19;16;
56175;PMS5003;63065;51.082;17.016;2022-08-26T11:51:20;19;17;
56175;PMS5003;63065;51.082;17.016;2022-08-26T11:53:39;17;17;
56175;PMS5003;63065;51.082;17.016;2022-08-26T11:56:04;18;16;
56175;PMS5003;63065;51.082;17.016;2022-08-26T11:58:29;19;19;
56175;PMS5003;63065;51.082;17.016;2022-08-26T12:00:56;20;19;
56175;PMS5003;63065;51.082;17.016;2022-08-26T12:03:21;19;17;
56175;PMS5003;63065;51.082;17.016;2022-08-26T12:05:47;18;17;
56175;PMS5003;63065;51.082;17.016;2022-08-26T12:08:13;19;19;
56175;PMS5003;63065;51.082;17.016;2022-08-26T12:10:37;16;16;
56175;PMS5003;63065;51.082;17.016;2022-08-26T12:13:03;19;18;
56175;PMS5003;63065;51.082;17.016;2022-08-26T12:15:28;15;15;
56175;PMS5003;63065;51.082;17.016;2022-08-26T12:17:53;15;14;
56175;PMS5003;63065;51.082;17.016;2022-08-26T12:20:27;16;14;
56175;PMS5003;63065;51.082;17.016;2022-08-26T12:22:44;17;17;
56175;PMS5003;63065;51.082;17.016;2022-08-26T12:25:09;16;16;
56175;PMS5003;63065;51.082;17.016;2022-08-26T12:27:36;20;19;
56175;PMS5003;63065;51.082;17.016;2022-08-26T12:30:02;19;17;
56175;PMS5003;63065;51.082;17.016;2022-08-26T12:32:25;17;15;
56175;PMS5003;63065;51.082;17.016;2022-08-26T12:34:51;17;17;
56175;PMS5003;63065;51.082;17.016;2022-08-26T12:37:17;15;13;
56175;PMS5003;63065;51.082;17.016;2022-08-26T12:39:43;17;15;
56175;PMS5003;63065;51.082;17.016;2022-08-26T12:44:35;14;14;
56175;PMS5003;63065;51.082;17.016;2022-08-26T12:47:02;15;13;
56175;PMS5003;63065;51.082;17.016;2022-08-26T12:49:24;16;15;
56175;PMS5003;63065;51.082;17.016;2022-08-26T12:51:49;15;15;
56175;PMS5003;63065;51.082;17.016;2022-08-26T12:54:15;15;15;
56175;PMS5003;63065;51.082;17.016;2022-08-26T12:56:41;14;14;
56175;PMS5003;63065;51.082;17.016;2022-08-26T12:59:07;17;12;
56175;PMS5003;63065;51.082;17.016;2022-08-26T13:01:36;12;12;
56175;PMS5003;63065;51.082;17.016;2022-08-26T13:03:57;16;15;
56175;PMS5003;63065;51.082;17.016;2022-08-26T13:06:24;14;14;
56175;PMS5003;63065;51.082;17.016;2022-08-26T13:08:48;14;14;
56175;PMS5003;63065;51.082;17.016;2022-08-26T13:11:14;13;12;
56175;PMS5003;63065;51.082;17.016;2022-08-26T13:13:39;18;15;
56175;PMS5003;63065;51.082;17.016;2022-08-26T13:16:04;14;13;
56175;PMS5003;63065;51.082;17.016;2022-08-26T13:18:30;12;12;
56175;PMS5003;63065;51.082;17.016;2022-08-26T13:20:55;16;16;
56175;PMS5003;63065;51.082;17.016;2022-08-26T13:23:21;12;11;
56175;PMS5003;63065;51.082;17.016;2022-08-26T13:25:46;15;14;
56175;PMS5003;63065;51.082;17.016;2022-08-26T13:28:12;14;14;
56175;PMS5003;63065;51.082;17.016;2022-08-26T13:30:38;12;12;
56175;PMS5003;63065;51.082;17.016;2022-08-26T13:33:03;15;13;
56175;PMS5003;63065;51.082;17.016;2022-08-26T13:35:28;14;14;
56175;PMS5003;63065;51.082;17.016;2022-08-26T13:37:54;15;13;
56175;PMS5003;63065;51.082;17.016;2022-08-26T13:40:20;14;14;
56175;PMS5003;63065;51.082;17.016;2022-08-26T13:42:45;18;14;
56175;PMS5003;63065;51.082;17.016;2022-08-26T13:45:11;17;15;
56175;PMS5003;63065;51.082;17.016;2022-08-26T13:47:36;15;12;
56175;PMS5003;63065;51.082;17.016;2022-08-26T13:50:02;14;13;
56175;PMS5003;63065;51.082;17.016;2022-08-26T13:52:27;14;14;
56175;PMS5003;63065;51.082;17.016;2022-08-26T13:54:52;15;15;
56175;PMS5003;63065;51.082;17.016;2022-08-26T13:57:18;18;15;
56175;PMS5003;63065;51.082;17.016;2022-08-26T13:59:43;12;12;
56175;PMS5003;63065;51.082;17.016;2022-08-26T14:02:08;16;14;
56175;PMS5003;63065;51.082;17.016;2022-08-26T14:04:33;17;15;
56175;PMS5003;63065;51.082;17.016;2022-08-26T14:06:59;15;12;
56175;PMS5003;63065;51.082;17.016;2022-08-26T14:09:24;10;10;
56175;PMS5003;63065;51.082;17.016;2022-08-26T14:11:49;14;12;
56175;PMS5003;63065;51.082;17.016;2022-08-26T14:14:14;12;12;
56175;PMS5003;63065;51.082;17.016;2022-08-26T14:16:40;12;12;
56175;PMS5003;63065;51.082;17.016;2022-08-26T14:19:05;14;13;
56175;PMS5003;63065;51.082;17.016;2022-08-26T14:21:32;15;15;
56175;PMS5003;63065;51.082;17.016;2022-08-26T14:23:56;12;12;
56175;PMS5003;63065;51.082;17.016;2022-08-26T14:26:21;12;11;
56175;PMS5003;63065;51.082;17.016;2022-08-26T14:28:47;14;13;
56175;PMS5003;63065;51.082;17.016;2022-08-26T14:31:13;11;11;
56175;PMS5003;63065;51.082;17.016;2022-08-26T14:33:38;12;11;
56175;PMS5003;63065;51.082;17.016;2022-08-26T14:36:04;11;11;
56175;PMS5003;63065;51.082;17.016;2022-08-26T14:38:29;10;10;
56175;PMS5003;63065;51.082;17.016;2022-08-26T14:40:54;13;11;
56175;PMS5003;63065;51.082;17.016;2022-08-26T14:43:20;12;12;
56175;PMS5003;63065;51.082;17.016;2022-08-26T14:45:46;9;9;
56175;PMS5003;63065;51.082;17.016;2022-08-26T14:48:11;11;10;
56175;PMS5003;63065;51.082;17.016;2022-08-26T14:50:37;15;15;
56175;PMS5003;63065;51.082;17.016;2022-08-26T14:53:03;14;12;
56175;PMS5003;63065;51.082;17.016;2022-08-26T14:55:29;11;11;
56175;PMS5003;63065;51.082;17.016;2022-08-26T14:57:54;9;9;
56175;PMS5003;63065;51.082;17.016;2022-08-26T15:00:20;11;10;
56175;PMS5003;63065;51.082;17.016;2022-08-26T15:02:45;11;11;
56175;PMS5003;63065;51.082;17.016;2022-08-26T15:05:11;10;10;
56175;PMS5003;63065;51.082;17.016;2022-08-26T15:07:37;12;11;
56175;PMS5003;63065;51.082;17.016;2022-08-26T15:10:02;12;10;
56175;PMS5003;63065;51.082;17.016;2022-08-26T15:12:28;9;9;
56175;PMS5003;63065;51.082;17.016;2022-08-26T15:14:53;11;11;
56175;PMS5003;63065;51.082;17.016;2022-08-26T15:17:18;13;13;
56175;PMS5003;63065;51.082;17.016;2022-08-26T15:19:44;10;8;
56175;PMS5003;63065;51.082;17.016;2022-08-26T15:22:10;15;11;
56175;PMS5003;63065;51.082;17.016;2022-08-26T15:24:35;11;11;
56175;PMS5003;63065;51.082;17.016;2022-08-26T15:27:01;11;10;
56175;PMS5003;63065;51.082;17.016;2022-08-26T15:29:26;10;9;
56175;PMS5003;63065;51.082;17.016;2022-08-26T15:31:51;10;10;
56175;PMS5003;63065;51.082;17.016;2022-08-26T15:34:17;7;7;
56175;PMS5003;63065;51.082;17.016;2022-08-26T15:36:43;9;9;
56175;PMS5003;63065;51.082;17.016;2022-08-26T15:39:09;9;9;
56175;PMS5003;63065;51.082;17.016;2022-08-26T15:41:34;11;10;
56175;PMS5003;63065;51.082;17.016;2022-08-26T15:44:00;11;11;
56175;PMS5003;63065;51.082;17.016;2022-08-26T15:46:25;9;9;
56175;PMS5003;63065;51.082;17.016;2022-08-26T15:48:51;14;11;
56175;PMS5003;63065;51.082;17.016;2022-08-26T15:51:18;8;8;
56175;PMS5003;63065;51.082;17.016;2022-08-26T15:53:42;13;13;
56175;PMS5003;63065;51.082;17.016;2022-08-26T15:56:08;12;10;
56175;PMS5003;63065;51.082;17.016;2022-08-26T15:58:34;10;10;
56175;PMS5003;63065;51.082;17.016;2022-08-26T16:00:59;11;11;
56175;PMS5003;63065;51.082;17.016;2022-08-26T16:03:25;11;9;
56175;PMS5003;63065;51.082;17.016;2022-08-26T16:05:50;11;10;
56175;PMS5003;63065;51.082;17.016;2022-08-26T16:08:16;9;9;
56175;PMS5003;63065;51.082;17.016;2022-08-26T16:10:43;11;10;
56175;PMS5003;63065;51.082;17.016;2022-08-26T16:13:07;13;12;
56175;PMS5003;63065;51.082;17.016;2022-08-26T16:15:33;15;14;
56175;PMS5003;63065;51.082;17.016;2022-08-26T16:17:58;10;10;
56175;PMS5003;63065;51.082;17.016;2022-08-26T16:20:24;10;10;
56175;PMS5003;63065;51.082;17.016;2022-08-26T16:22:50;8;8;
56175;PMS5003;63065;51.082;17.016;2022-08-26T16:25:15;16;13;
56175;PMS5003;63065;51.082;17.016;2022-08-26T16:27:41;12;10;
56175;PMS5003;63065;51.082;17.016;2022-08-26T16:30:06;12;11;
56175;PMS5003;63065;51.082;17.016;2022-08-26T16:32:32;11;10;
56175;PMS5003;63065;51.082;17.016;2022-08-26T16:34:57;8;8;
56175;PMS5003;63065;51.082;17.016;2022-08-26T16:37:22;11;11;
56175;PMS5003;63065;51.082;17.016;2022-08-26T16:39:48;11;9;
56175;PMS5003;63065;51.082;17.016;2022-08-26T16:42:14;10;10;
56175;PMS5003;63065;51.082;17.016;2022-08-26T16:44:39;8;8;
56175;PMS5003;63065;51.082;17.016;2022-08-26T16:47:05;15;12;
56175;PMS5003;63065;51.082;17.016;2022-08-26T16:49:31;11;11;
56175;PMS5003;63065;51.082;17.016;2022-08-26T16:51:57;9;9;
56175;PMS5003;63065;51.082;17.016;2022-08-26T16:54:22;24;17;
56175;PMS5003;63065;51.082;17.016;2022-08-26T16:56:48;22;16;
56175;PMS5003;63065;51.082;17.016;2022-08-26T16:59:13;12;12;
56175;PMS5003;63065;51.082;17.016;2022-08-26T17:01:39;10;10;
56175;PMS5003;63065;51.082;17.016;2022-08-26T17:04:04;10;9;
56175;PMS5003;63065;51.082;17.016;2022-08-26T17:06:30;12;10;
56175;PMS5003;63065;51.082;17.016;2022-08-26T17:08:55;16;14;
56175;PMS5003;63065;51.082;17.016;2022-08-26T17:11:20;11;10;
56175;PMS5003;63065;51.082;17.016;2022-08-26T17:13:46;11;11;
56175;PMS5003;63065;51.082;17.016;2022-08-26T17:16:12;8;8;
56175;PMS5003;63065;51.082;17.016;2022-08-26T17:18:38;12;10;
56175;PMS5003;63065;51.082;17.016;2022-08-26T17:21:04;15;12;
56175;PMS5003;63065;51.082;17.016;2022-08-26T17:23:28;15;14;
56175;PMS5003;63065;51.082;17.016;2022-08-26T17:25:54;15;13;
56175;PMS5003;63065;51.082;17.016;2022-08-26T17:28:20;10;10;
56175;PMS5003;63065;51.082;17.016;2022-08-26T17:30:45;11;10;
56175;PMS5003;63065;51.082;17.016;2022-08-26T17:33:11;12;11;
56175;PMS5003;63065;51.082;17.016;2022-08-26T17:35:37;10;9;
56175;PMS5003;63065;51.082;17.016;2022-08-26T17:38:02;11;11;
56175;PMS5003;63065;51.082;17.016;2022-08-26T17:40:28;11;11;
56175;PMS5003;63065;51.082;17.016;2022-08-26T17:42:54;12;9;
56175;PMS5003;63065;51.082;17.016;2022-08-26T17:45:19;13;11;
56175;PMS5003;63065;51.082;17.016;2022-08-26T17:47:44;11;10;
56175;PMS5003;63065;51.082;17.016;2022-08-26T17:50:11;13;13;
56175;PMS5003;63065;51.082;17.016;2022-08-26T17:52:35;13;12;
56175;PMS5003;63065;51.082;17.016;2022-08-26T17:55:02;12;10;
56175;PMS5003;63065;51.082;17.016;2022-08-26T17:57:26;13;13;
56175;PMS5003;63065;51.082;17.016;2022-08-26T17:59:52;13;13;
56175;PMS5003;63065;51.082;17.016;2022-08-26T18:02:17;12;10;
56175;PMS5003;63065;51.082;17.016;2022-08-26T18:04:43;11;11;
56175;PMS5003;63065;51.082;17.016;2022-08-26T18:07:09;12;12;
56175;PMS5003;63065;51.082;17.016;2022-08-26T18:09:35;14;12;
56175;PMS5003;63065;51.082;17.016;2022-08-26T18:12:00;12;10;
56175;PMS5003;63065;51.082;17.016;2022-08-26T18:14:26;10;10;
56175;PMS5003;63065;51.082;17.016;2022-08-26T18:16:52;13;13;
56175;PMS5003;63065;51.082;17.016;2022-08-26T18:19:17;11;11;
56175;PMS5003;63065;51.082;17.016;2022-08-26T18:21:43;13;12;
56175;PMS5003;63065;51.082;17.016;2022-08-26T18:24:08;10;10;
56175;PMS5003;63065;51.082;17.016;2022-08-26T18:26:34;14;13;
56175;PMS5003;63065;51.082;17.016;2022-08-26T18:28:59;12;12;
56175;PMS5003;63065;51.082;17.016;2022-08-26T18:31:25;12;12;
56175;PMS5003;63065;51.082;17.016;2022-08-26T18:33:51;11;11;
56175;PMS5003;63065;51.082;17.016;2022-08-26T18:36:17;13;13;
56175;PMS5003;63065;51.082;17.016;2022-08-26T18:38:42;10;10;
56175;PMS5003;63065;51.082;17.016;2022-08-26T18:41:07;10;9;
56175;PMS5003;63065;51.082;17.016;2022-08-26T18:43:33;14;10;
56175;PMS5003;63065;51.082;17.016;2022-08-26T18:46:00;11;11;
56175;PMS5003;63065;51.082;17.016;2022-08-26T18:48:24;16;13;
56175;PMS5003;63065;51.082;17.016;2022-08-26T18:50:50;16;14;
56175;PMS5003;63065;51.082;17.016;2022-08-26T18:53:15;14;11;
56175;PMS5003;63065;51.082;17.016;2022-08-26T18:55:41;14;11;
56175;PMS5003;63065;51.082;17.016;2022-08-26T18:58:07;11;11;
56175;PMS5003;63065;51.082;17.016;2022-08-26T19:00:32;12;12;
56175;PMS5003;63065;51.082;17.016;2022-08-26T19:02:58;15;13;
56175;PMS5003;63065;51.082;17.016;2022-08-26T19:05:23;15;14;
56175;PMS5003;63065;51.082;17.016;2022-08-26T19:07:49;13;13;
56175;PMS5003;63065;51.082;17.016;2022-08-26T19:10:14;10;10;
56175;PMS5003;63065;51.082;17.016;2022-08-26T19:12:39;10;10;
56175;PMS5003;63065;51.082;17.016;2022-08-26T19:15:05;12;11;
56175;PMS5003;63065;51.082;17.016;2022-08-26T19:17:30;12;11;
56175;PMS5003;63065;51.082;17.016;2022-08-26T19:19:56;11;11;
56175;PMS5003;63065;51.082;17.016;2022-08-26T19:22:21;13;13;
56175;PMS5003;63065;51.082;17.016;2022-08-26T19:24:47;11;11;
56175;PMS5003;63065;51.082;17.016;2022-08-26T19:27:12;12;12;
56175;PMS5003;63065;51.082;17.016;2022-08-26T19:29:37;16;14;
56175;PMS5003;63065;51.082;17.016;2022-08-26T19:32:03;15;14;
56175;PMS5003;63065;51.082;17.016;2022-08-26T19:34:29;15;14;
56175;PMS5003;63065;51.082;17.016;2022-08-26T19:36:54;14;12;
56175;PMS5003;63065;51.082;17.016;2022-08-26T19:39:20;14;14;
56175;PMS5003;63065;51.082;17.016;2022-08-26T19:41:45;16;16;
56175;PMS5003;63065;51.082;17.016;2022-08-26T19:44:13;16;16;
56175;PMS5003;63065;51.082;17.016;2022-08-26T19:46:37;19;17;
56175;PMS5003;63065;51.082;17.016;2022-08-26T19:49:02;18;16;
56175;PMS5003;63065;51.082;17.016;2022-08-26T19:51:29;16;14;
56175;PMS5003;63065;51.082;17.016;2022-08-26T19:53:54;15;14;
56175;PMS5003;63065;51.082;17.016;2022-08-26T19:56:19;16;14;
56175;PMS5003;63065;51.082;17.016;2022-08-26T19:58:45;14;14;
56175;PMS5003;63065;51.082;17.016;2022-08-26T20:01:10;15;12;
56175;PMS5003;63065;51.082;17.016;2022-08-26T20:03:35;16;14;
56175;PMS5003;63065;51.082;17.016;2022-08-26T20:06:01;14;14;
56175;PMS5003;63065;51.082;17.016;2022-08-26T20:08:26;17;15;
56175;PMS5003;63065;51.082;17.016;2022-08-26T20:10:51;17;16;
56175;PMS5003;63065;51.082;17.016;2022-08-26T20:13:17;18;16;
56175;PMS5003;63065;51.082;17.016;2022-08-26T20:15:43;18;15;
56175;PMS5003;63065;51.082;17.016;2022-08-26T20:18:08;19;16;
56175;PMS5003;63065;51.082;17.016;2022-08-26T20:20:33;20;18;
56175;PMS5003;63065;51.082;17.016;2022-08-26T20:22:59;16;13;
56175;PMS5003;63065;51.082;17.016;2022-08-26T20:25:24;15;15;
56175;PMS5003;63065;51.082;17.016;2022-08-26T20:27:50;17;16;
56175;PMS5003;63065;51.082;17.016;2022-08-26T20:30:15;17;17;
56175;PMS5003;63065;51.082;17.016;2022-08-26T20:32:41;18;16;
56175;PMS5003;63065;51.082;17.016;2022-08-26T20:35:08;12;11;
56175;PMS5003;63065;51.082;17.016;2022-08-26T20:37:32;21;21;
56175;PMS5003;63065;51.082;17.016;2022-08-26T20:39:57;17;15;
56175;PMS5003;63065;51.082;17.016;2022-08-26T20:42:22;15;15;
56175;PMS5003;63065;51.082;17.016;2022-08-26T20:44:47;16;16;
56175;PMS5003;63065;51.082;17.016;2022-08-26T20:47:13;18;18;
56175;PMS5003;63065;51.082;17.016;2022-08-26T20:49:38;18;14;
56175;PMS5003;63065;51.082;17.016;2022-08-26T20:52:03;21;18;
56175;PMS5003;63065;51.082;17.016;2022-08-26T20:54:30;20;16;
56175;PMS5003;63065;51.082;17.016;2022-08-26T20:56:54;17;15;
56175;PMS5003;63065;51.082;17.016;2022-08-26T20:59:19;20;18;
56175;PMS5003;63065;51.082;17.016;2022-08-26T21:01:44;16;14;
56175;PMS5003;63065;51.082;17.016;2022-08-26T21:04:11;21;18;
56175;PMS5003;63065;51.082;17.016;2022-08-26T21:06:35;20;17;
56175;PMS5003;63065;51.082;17.016;2022-08-26T21:09:01;17;17;
56175;PMS5003;63065;51.082;17.016;2022-08-26T21:11:26;18;17;
56175;PMS5003;63065;51.082;17.016;2022-08-26T21:13:51;19;18;
56175;PMS5003;63065;51.082;17.016;2022-08-26T21:16:16;19;17;
56175;PMS5003;63065;51.082;17.016;2022-08-26T21:18:43;18;18;
56175;PMS5003;63065;51.082;17.016;2022-08-26T21:21:07;20;15;
56175;PMS5003;63065;51.082;17.016;2022-08-26T21:23:33;18;15;
56175;PMS5003;63065;51.082;17.016;2022-08-26T21:26:00;20;19;
56175;PMS5003;63065;51.082;17.016;2022-08-26T21:28:24;15;15;
56175;PMS5003;63065;51.082;17.016;2022-08-26T21:30:49;16;14;
56175;PMS5003;63065;51.082;17.016;2022-08-26T21:33:15;21;16;
56175;PMS5003;63065;51.082;17.016;2022-08-26T21:35:41;20;18;
56175;PMS5003;63065;51.082;17.016;2022-08-26T21:38:06;17;17;
56175;PMS5003;63065;51.082;17.016;2022-08-26T21:40:31;27;22;
56175;PMS5003;63065;51.082;17.016;2022-08-26T21:42:57;16;16;
56175;PMS5003;63065;51.082;17.016;2022-08-26T21:45:22;18;17;
56175;PMS5003;63065;51.082;17.016;2022-08-26T21:47:48;16;15;
56175;PMS5003;63065;51.082;17.016;2022-08-26T21:50:13;18;17;
56175;PMS5003;63065;51.082;17.016;2022-08-26T21:52:39;17;16;
56175;PMS5003;63065;51.082;17.016;2022-08-26T21:55:04;16;16;
56175;PMS5003;63065;51.082;17.016;2022-08-26T21:57:30;17;17;
56175;PMS5003;63065;51.082;17.016;2022-08-26T21:59:55;20;18;
56175;PMS5003;63065;51.082;17.016;2022-08-26T22:02:21;19;19;
56175;PMS5003;63065;51.082;17.016;2022-08-26T22:04:47;21;20;
56175;PMS5003;63065;51.082;17.016;2022-08-26T22:07:13;18;18;
56175;PMS5003;63065;51.082;17.016;2022-08-26T22:09:39;20;17;
56175;PMS5003;63065;51.082;17.016;2022-08-26T22:12:06;19;18;
56175;PMS5003;63065;51.082;17.016;2022-08-26T22:14:29;19;19;
56175;PMS5003;63065;51.082;17.016;2022-08-26T22:16:55;23;20;
56175;PMS5003;63065;51.082;17.016;2022-08-26T22:19:21;22;18;
56175;PMS5003;63065;51.082;17.016;2022-08-26T22:21:46;20;18;
56175;PMS5003;63065;51.082;17.016;2022-08-26T22:24:12;21;17;
56175;PMS5003;63065;51.082;17.016;2022-08-26T22:26:37;16;16;
56175;PMS5003;63065;51.082;17.016;2022-08-26T22:29:03;20;20;
56175;PMS5003;63065;51.082;17.016;2022-08-26T22:31:28;22;18;
56175;PMS5003;63065;51.082;17.016;2022-08-26T22:33:53;22;21;
56175;PMS5003;63065;51.082;17.016;2022-08-26T22:36:20;23;19;
56175;PMS5003;63065;51.082;17.016;2022-08-26T22:38:44;21;20;
56175;PMS5003;63065;51.082;17.016;2022-08-26T22:41:10;23;19;
56175;PMS5003;63065;51.082;17.016;2022-08-26T22:43:35;20;18;
56175;PMS5003;63065;51.082;17.016;2022-08-26T22:46:01;22;19;
56175;PMS5003;63065;51.082;17.016;2022-08-26T22:48:26;19;19;
56175;PMS5003;63065;51.082;17.016;2022-08-26T22:50:52;22;22;
56175;PMS5003;63065;51.082;17.016;2022-08-26T22:53:17;23;22;
56175;PMS5003;63065;51.082;17.016;2022-08-26T22:55:42;19;19;
56175;PMS5003;63065;51.082;17.016;2022-08-26T22:58:07;21;19;
56175;PMS5003;63065;51.082;17.016;2022-08-26T23:00:33;24;22;
56175;PMS5003;63065;51.082;17.016;2022-08-26T23:02:58;21;17;
56175;PMS5003;63065;51.082;17.016;2022-08-26T23:05:24;17;17;
56175;PMS5003;63065;51.082;17.016;2022-08-26T23:07:49;16;16;
56175;PMS5003;63065;51.082;17.016;2022-08-26T23:10:15;21;19;
56175;PMS5003;63065;51.082;17.016;2022-08-26T23:12:40;22;22;
56175;PMS5003;63065;51.082;17.016;2022-08-26T23:15:07;19;17;
56175;PMS5003;63065;51.082;17.016;2022-08-26T23:17:31;22;22;
56175;PMS5003;63065;51.082;17.016;2022-08-26T23:19:56;21;20;
56175;PMS5003;63065;51.082;17.016;2022-08-26T23:22:22;20;19;
56175;PMS5003;63065;51.082;17.016;2022-08-26T23:24:47;19;19;
56175;PMS5003;63065;51.082;17.016;2022-08-26T23:27:13;21;18;
56175;PMS5003;63065;51.082;17.016;2022-08-26T23:29:38;23;21;
56175;PMS5003;63065;51.082;17.016;2022-08-26T23:32:04;17;17;
56175;PMS5003;63065;51.082;17.016;2022-08-26T23:34:29;20;18;
56175;PMS5003;63065;51.082;17.016;2022-08-26T23:36:55;21;18;
56175;PMS5003;63065;51.082;17.016;2022-08-26T23:39:20;18;17;
56175;PMS5003;63065;51.082;17.016;2022-08-26T23:41:45;21;20;
56175;PMS5003;63065;51.082;17.016;2022-08-26T23:44:11;19;17;
56175;PMS5003;63065;51.082;17.016;2022-08-26T23:46:37;16;16;
56175;PMS5003;63065;51.082;17.016;2022-08-26T23:49:02;24;20;
56175;PMS5003;63065;51.082;17.016;2022-08-26T23:51:27;18;17;
56175;PMS5003;63065;51.082;17.016;2022-08-26T23:53:53;18;17;
56175;PMS5003;63065;51.082;17.016;2022-08-26T23:56:19;20;17;
56175;PMS5003;63065;51.082;17.016;2022-08-26T23:58:44;21;20;
